Flight Track Log - Related Links

Times and Time Zones

All times are in EDT time to prevent confusion due to time zone crossing. See the NKS851 flight status page for this flight to view local times or setup timezone preferences in your user account.

Time Position Orientation Groundspeed Altitude Reporting Facility
EDT Latitude Longitude Course Direction KTS MPH feet Rate Location/Type
Mon 01:02:07 PM 42.3690 -83.1930 36° Northeast 269 310 8,400  Level FlightAware ADS-B
Mon 01:02:17 PM 42.3740 -83.1660 76° East 289 333 9,400 3,800 Climbing FlightAware ADS-B
Mon 01:02:37 PM 42.3680 -83.1330 104° East 301 346 10,300 1,800 Climbing FlightAware ADS-B
Mon 01:03:17 PM 42.3380 -83.0710 123° Southeast 352 405 11,200 1,800 Climbing FlightAware ADS-B
Mon 01:03:57 PM 42.2980 -82.9800 121° Southeast 364 419 12,700 1,350 Climbing FlightAware ADS-B
Mon 01:04:37 PM 42.2690 -82.9100 119° Southeast 369 425 13,000 1,835 Climbing FlightAware ADS-B
Mon 01:05:22 PM 42.2230 -82.8010 120° Southeast 385 443 15,300 2,753 Climbing FlightAware ADS-B
Mon 01:06:02 PM 42.1900 -82.7230 120° Southeast 392 451 16,900 2,400 Climbing FlightAware ADS-B
Mon 01:06:47 PM 42.1440 -82.6150 120° Southeast 407 468 18,700 2,160 Climbing FlightAware ADS-B
Mon 01:07:42 PM 42.0920 -82.4920 120° Southeast 425 489 20,500 1,800 Climbing FlightAware ADS-B
Mon 01:07:57 PM 42.0850 -82.4670 111° Southeast 425 489 20,800 2,760 Climbing FlightAware ADS-B
Mon 01:08:32 PM 42.0630 -82.3130 101° East 430 495 22,800 2,471 Climbing FlightAware ADS-B
Mon 01:09:22 PM 42.0420 -82.1710 101° East 441 507 24,300 1,667 Climbing FlightAware ADS-B
Mon 01:10:02 PM 42.0120 -82.0680 111° Southeast 469 540 25,300 1,425 Climbing FlightAware ADS-B
Mon 01:10:42 PM 41.9430 -81.9880 139° Southeast 493 567 26,200 1,412 Climbing FlightAware ADS-B
Mon 01:11:27 PM 41.8610 -81.9110 145° Southeast 500 575 27,300 1,341 Climbing FlightAware ADS-B
Mon 01:12:07 PM 41.7820 -81.8350 144° Southeast 510 587 28,100 1,200 Climbing FlightAware ADS-B
Mon 01:12:52 PM 41.6960 -81.7530 145° Southeast 518 596 29,000 1,271 Climbing FlightAware ADS-B
Mon 01:13:32 PM 41.6180 -81.6800 145° Southeast 522 601 29,900 1,275 Climbing FlightAware ADS-B
Mon 01:14:12 PM 41.5320 -81.6190 152° Southeast 527 606 30,700 1,271 Climbing FlightAware ADS-B
Mon 01:14:57 PM 41.4320 -81.5650 158° South 527 606 31,700 1,341 Climbing FlightAware ADS-B
Mon 01:15:37 PM 41.3390 -81.5150 158° South 527 606 32,600 1,341 Climbing FlightAware ADS-B
Mon 01:16:22 PM 41.2390 -81.4610 158° South 525 604 33,600 1,271 Climbing FlightAware ADS-B
Mon 01:17:02 PM 41.1480 -81.4120 158° South 521 600 34,400 1,350 Climbing FlightAware ADS-B
Mon 01:17:42 PM 41.0590 -81.3650 158° South 515 593 35,400 1,341 Climbing FlightAware ADS-B
Mon 01:18:27 PM 40.9650 -81.3150 158° South 508 585 36,300 1,129 Climbing FlightAware ADS-B
Mon 01:19:07 PM 40.8770 -81.2680 158° South 498 573 37,000 494 Climbing FlightAware ADS-B
Mon 01:19:52 PM 40.7770 -81.2150 158° South 497 572 37,000  Level FlightAware ADS-B
Mon 01:20:32 PM 40.6940 -81.1710 158° South 498 573 37,000  Level FlightAware ADS-B
Mon 01:21:02 PM 40.6290 -81.1370 158° South 499 574 37,000  Level FlightAware ADS-B
Mon 01:21:42 PM 40.5430 -81.0910 158° South 499 574 37,000  Level FlightAware ADS-B
Mon 01:22:22 PM 40.4580 -81.0470 159° South 498 573 37,000  Level FlightAware ADS-B
Mon 01:23:07 PM 40.3600 -80.9960 158° South 499 574 37,000  Level FlightAware ADS-B
Mon 01:23:47 PM 40.2780 -80.9530 158° South 498 573 37,000  Level FlightAware ADS-B
Mon 01:24:32 PM 40.1780 -80.9010 158° South 500 575 37,000  Level FlightAware ADS-B
Mon 01:25:12 PM 40.0930 -80.8570 158° South 500 575 37,000  Level FlightAware ADS-B
Mon 01:25:52 PM 40.0070 -80.8110 158° South 503 579 37,000  Level FlightAware ADS-B
Mon 01:26:32 PM 39.9260 -80.7570 153° Southeast 502 578 37,000  Level FlightAware ADS-B
Mon 01:27:17 PM 39.8330 -80.6960 153° Southeast 500 575 37,000  Level FlightAware ADS-B
Mon 01:27:57 PM 39.7500 -80.6410 153° Southeast 500 575 37,000  Level FlightAware ADS-B
Mon 01:28:42 PM 39.6570 -80.5800 153° Southeast 499 574 37,000  Level FlightAware ADS-B
Mon 01:29:22 PM 39.5730 -80.5250 153° Southeast 498 573 37,000  Level FlightAware ADS-B
Mon 01:30:07 PM 39.4860 -80.4690 154° Southeast 497 572 37,000  Level FlightAware ADS-B
Mon 01:30:47 PM 39.4020 -80.4140 153° Southeast 495 570 37,000  Level FlightAware ADS-B
Mon 01:31:27 PM 39.3270 -80.3650 153° Southeast 493 567 37,000  Level FlightAware ADS-B
Mon 01:32:07 PM 39.2390 -80.3080 153° Southeast 493 567 37,000  Level FlightAware ADS-B
Mon 01:32:47 PM 39.1630 -80.2590 153° Southeast 491 565 37,000  Level FlightAware ADS-B
Mon 01:33:37 PM 39.0580 -80.1920 154° Southeast 492 566 37,000  Level FlightAware ADS-B
Mon 01:34:17 PM 38.9750 -80.1390 154° Southeast 492 566 37,000  Level FlightAware ADS-B
Mon 01:35:02 PM 38.8870 -80.0870 155° Southeast 487 560 37,000  Level FlightAware ADS-B
Mon 01:35:42 PM 38.7990 -80.0480 161° South 486 559 37,000  Level FlightAware ADS-B
Mon 01:36:27 PM 38.7010 -80.0040 161° South 483 556 37,000  Level FlightAware ADS-B
Mon 01:37:07 PM 38.6250 -79.9690 160° South 482 555 37,000  Level FlightAware ADS-B
Mon 01:37:52 PM 38.5190 -79.9220 161° South 480 552 37,000  Level FlightAware ADS-B
Mon 01:38:32 PM 38.4350 -79.8840 160° South 480 552 37,000  Level FlightAware ADS-B
Mon 01:39:12 PM 38.3520 -79.8470 161° South 482 555 37,000  Level FlightAware ADS-B
Mon 01:39:52 PM 38.2660 -79.8090 161° South 483 556 37,000 -141 Level FlightAware ADS-B
Mon 01:40:37 PM 38.1810 -79.7720 161° South 483 556 36,800 -420 Descending FlightAware ADS-B
Mon 01:41:32 PM 38.0620 -79.7180 160° South 477 549 36,300 -316 Descending FlightAware ADS-B
Mon 01:42:12 PM 37.9920 -79.6860 160° South 477 549 36,300 -780 Level FlightAware ADS-B
Mon 01:43:12 PM 37.8480 -79.6250 162° South 476 548 35,000 -821 Descending FlightAware ADS-B
Mon 01:43:47 PM 37.7850 -79.5960 160° South 476 548 35,000  Level FlightAware ADS-B
Mon 01:44:37 PM 37.6750 -79.5490 161° South 474 545 35,000  Level FlightAware ADS-B
Mon 01:45:17 PM 37.5980 -79.5140 160° South 474 545 35,000  Level FlightAware ADS-B
Mon 01:45:57 PM 37.5070 -79.4760 162° South 474 545 35,000  Level FlightAware ADS-B
Mon 01:46:42 PM 37.4120 -79.4350 161° South 472 543 35,000  Level FlightAware ADS-B
Mon 01:47:22 PM 37.3320 -79.4010 161° South 470 541 35,000  Level FlightAware ADS-B
Mon 01:48:07 PM 37.2420 -79.3620 161° South 470 541 35,000  Level FlightAware ADS-B
Mon 01:48:47 PM 37.1600 -79.3270 161° South 471 542 35,000  Level FlightAware ADS-B
Mon 01:49:27 PM 37.0740 -79.2970 164° South 461 531 35,000  Level FlightAware ADS-B
Mon 01:50:12 PM 36.9750 -79.2870 175° South 457 526 35,000  Level FlightAware ADS-B
Mon 01:50:52 PM 36.8960 -79.2770 174° South 455 524 35,000  Level FlightAware ADS-B
Mon 01:51:32 PM 36.8080 -79.2670 175° South 450 518 35,000  Level FlightAware ADS-B
Mon 01:52:17 PM 36.7210 -79.2580 175° South 450 518 35,000  Level FlightAware ADS-B
Mon 01:52:57 PM 36.6390 -79.2480 174° South 449 517 35,000  Level FlightAware ADS-B
Mon 01:53:32 PM 36.5660 -79.2400 175° South 448 516 35,000  Level FlightAware ADS-B
Mon 01:54:22 PM 36.4610 -79.2280 175° South 447 514 35,000  Level FlightAware ADS-B
Mon 01:55:02 PM 36.3760 -79.2190 175° South 447 514 35,000  Level FlightAware ADS-B
Mon 01:55:42 PM 36.3050 -79.2110 175° South 439 505 35,000 -150 Level FlightAware ADS-B
Mon 01:56:22 PM 36.2120 -79.2010 175° South 451 519 34,800 -533 Descending FlightAware ADS-B
Mon 01:57:12 PM 36.1050 -79.1890 175° South 447 514 34,200 -533 Descending FlightAware ADS-B
Mon 01:57:52 PM 36.0250 -79.1800 175° South 451 519 34,000 -150 Descending FlightAware ADS-B
Mon 01:58:32 PM 35.9390 -79.1710 175° South 451 519 34,000 -424 Level FlightAware ADS-B
Mon 01:59:17 PM 35.8500 -79.1610 175° South 448 516 33,400 -900 Descending FlightAware ADS-B
Mon 01:59:52 PM 35.7730 -79.1520 175° South 450 518 32,800 -975 Descending FlightAware ADS-B
Mon 02:00:37 PM 35.6830 -79.1420 175° South 445 512 32,100 -933 Descending FlightAware ADS-B
Mon 02:01:22 PM 35.5940 -79.1320 175° South 432 497 31,400 -975 Descending FlightAware ADS-B
Mon 02:01:57 PM 35.5220 -79.1250 175° South 420 483 30,800 -918 Descending FlightAware ADS-B
Mon 02:02:47 PM 35.4300 -79.1150 175° South 406 467 30,100 -933 Descending FlightAware ADS-B
Mon 02:03:27 PM 35.3520 -79.1060 175° South 404 465 29,400 -1,059 Descending FlightAware ADS-B
Mon 02:04:12 PM 35.2660 -79.0970 175° South 405 466 28,600 -1,425 Descending FlightAware ADS-B
Mon 02:04:47 PM 35.2020 -79.0900 175° South 402 463 27,500 -1,800 Descending FlightAware ADS-B
Mon 02:05:32 PM 35.1220 -79.0810 175° South 386 444 26,200 -1,867 Descending FlightAware ADS-B
Mon 02:06:17 PM 35.0390 -79.0720 175° South 384 442 24,700 -1,553 Descending FlightAware ADS-B
Mon 02:06:57 PM 34.9680 -79.0650 175° South 374 430 24,000 -776 Descending FlightAware ADS-B
Mon 02:07:42 PM 34.8960 -79.0570 175° South 388 447 23,600 -1,705 Descending FlightAware ADS-B
Mon 02:08:32 PM 34.8000 -79.0460 175° South 388 447 21,300 -1,380 Descending FlightAware ADS-B
Mon 02:09:22 PM 34.7240 -79.0360 174° South 388 447 21,300  Level FlightAware ADS-B
Mon 02:10:02 PM 34.6630 -79.0280 174° South 388 447 21,300  Level FlightAware ADS-B
Mon 02:10:42 PM 34.6030 -79.0200 174° South 388 447 21,300 -4,000 Level FlightAware ADS-B
Mon 02:11:32 PM 34.5000 -79.0150 178° South 338 389 15,300 -4,547 Descending FlightAware ADS-B
Mon 02:12:17 PM 34.4380 -79.0080 175° South 329 379 14,100 -1,768 Descending FlightAware ADS-B
Mon 02:13:07 PM 34.3560 -78.9960 173° South 324 373 12,500 -1,145 Descending FlightAware ADS-B
Mon 02:14:07 PM 34.3210 -78.9840 164° South 320 368 12,000 -821 Descending FlightAware ADS-B
Mon 02:14:42 PM 34.3210 -78.9850 270° West 315 362 11,200 -2,047 Descending FlightAware ADS-B
Mon 02:15:32 PM 34.1520 -78.9320 165° South 305 351 9,100 -2,400 Descending FlightAware ADS-B
Mon 02:15:37 PM 34.1460 -78.9300 165° South 305 351 9,000 -1,400 Descending FlightAware ADS-B
Mon 02:16:02 PM 34.1130 -78.9210 167° South 299 344 8,400 -1,440 Descending FlightAware ADS-B
Mon 02:16:27 PM 34.0790 -78.9120 168° South 295 339 7,800 -1,527 Descending FlightAware ADS-B
Mon 02:16:57 PM 34.0400 -78.9020 168° South 289 333 7,000 -1,000 Descending FlightAware ADS-B
Mon 02:17:27 PM 33.9980 -78.8910 168° South 295 339 6,800 -545 Descending FlightAware ADS-B
Mon 02:17:52 PM 33.9650 -78.8830 169° South 286 329 6,500 -1,309 Descending FlightAware ADS-B
Mon 02:18:22 PM 33.9280 -78.8730 167° South 282 325 5,600 -1,886 Descending FlightAware ADS-B
Mon 02:18:27 PM 33.9240 -78.8710 157° South 282 325 5,400 -1,171 Descending FlightAware ADS-B
Mon 02:19:03 PM 33.8700 -78.8556 157° South 293 337 4,800 -938 Descending Jacksonville Center
Mon 02:20:03 PM 33.8022 -78.8314 163° South 275 316 3,900 -617 Descending Jacksonville Center
Mon 02:25:42 PM 33.6280 -78.9150 163° South 126 145 700 -578 Descending FlightAware ADS-B
Mon 02:26:17 PM 33.6470 -78.9200 348° North 127 146 300 -655 Descending FlightAware ADS-B
Mon 02:26:37 PM 33.6580 -78.9230 347° North 127 146 100 -600 Descending FlightAware ADS-B
Mon 02:29:00 PM 33.6667 -78.9167 171° South  Level FlightAware Approximate
Mon 02:30:00 PM 33.6797 -78.9283 171° South  Level Estimated
Mon 02:31:00 PM 33.6797 -78.9283 171° South  Level Estimated
Mon 02:32:00 PM 33.6797 -78.9283 171° South  Level Estimated
Mon 02:33:00 PM 33.6797 -78.9283 171° South  Level Estimated

Login

Don't have an account? Register now (free) for customized features, flight alerts, and more!